Time;durP1;ratioP1;P1;durP2;ratioP2;P2;SDS_P1;SDS_P2;PMS_P1;PMS_P2;Temp;Humidity;BMP_temperature;BMP_pressure;BME280_temperature;BME280_humidity;BME280_pressure;Samples;Min_cycle;Max_cycle;Signal;HPM_P1;HPM_P2
2021/11/18 00:00:52;;;;;;;15.55;3.15;;;;;;;;;;4896994;29;20047;-86
2021/11/18 00:03:20;;;;;;;14.57;3.10;;;;;;;;;;4893962;29;20036;-86
2021/11/18 00:05:48;;;;;;;17.00;3.22;;;;;;;;;;4922735;29;20043;-86
2021/11/18 00:08:17;;;;;;;14.23;2.75;;;;;;;;;;4891626;29;20039;-86
2021/11/18 00:10:48;;;;;;;13.65;4.55;;;;;;;;;;4903297;29;20062;-86
2021/11/18 00:13:18;;;;;;;14.55;4.90;;;;;;;;;;4897724;29;20063;-86
2021/11/18 00:15:49;;;;;;;13.63;2.92;;;;;;;;;;4902083;29;20047;-85
2021/11/18 00:18:18;;;;;;;15.20;3.13;;;;;;;;;;4900633;29;20028;-86
2021/11/18 00:20:50;;;;;;;16.17;3.78;;;;;;;;;;4917793;29;20902;-85
2021/11/18 00:23:21;;;;;;;11.73;2.83;;;;;;;;;;4899414;29;20538;-85
2021/11/18 00:25:49;;;;;;;14.10;3.03;;;;;;;;;;4883516;29;20037;-85
2021/11/18 00:28:17;;;;;;;12.95;3.58;;;;;;;;;;4908288;29;20453;-86
2021/11/18 00:30:46;;;;;;;13.43;3.08;;;;;;;;;;4874427;29;20079;-85
2021/11/18 00:33:13;;;;;;;10.52;3.17;;;;;;;;;;4885198;29;20684;-85
2021/11/18 00:36:01;;;;;;;15.20;3.10;;;;;;;;;;4882848;29;20056;-85
2021/11/18 00:38:29;;;;;;;14.20;2.97;;;;;;;;;;4829614;29;20398;-87
2021/11/18 00:40:57;;;;;;;11.95;3.00;;;;;;;;;;4847727;29;20045;-86
2021/11/18 00:43:25;;;;;;;14.75;3.28;;;;;;;;;;4838986;29;20101;-85
2021/11/18 00:45:54;;;;;;;13.25;3.20;;;;;;;;;;4835786;29;20152;-85
2021/11/18 00:48:24;;;;;;;12.32;3.05;;;;;;;;;;4834344;29;20030;-85
2021/11/18 00:50:55;;;;;;;16.00;4.00;;;;;;;;;;4823439;29;20090;-84
2021/11/18 00:53:24;;;;;;;14.55;3.10;;;;;;;;;;4830033;29;20569;-84
2021/11/18 00:55:53;;;;;;;14.35;3.03;;;;;;;;;;4840040;29;20090;-85
2021/11/18 00:58:22;;;;;;;11.77;3.20;;;;;;;;;;4828110;29;20699;-85
2021/11/18 01:00:54;;;;;;;15.95;3.22;;;;;;;;;;4822558;29;20068;-84
2021/11/18 01:03:27;;;;;;;13.45;3.25;;;;;;;;;;4829053;29;20116;-86
2021/11/18 01:05:56;;;;;;;12.02;2.50;;;;;;;;;;4838743;29;20037;-84
2021/11/18 01:08:26;;;;;;;12.57;3.15;;;;;;;;;;4830928;29;20190;-86
2021/11/18 01:10:58;;;;;;;13.02;2.90;;;;;;;;;;4827075;29;20943;-85
2021/11/18 01:13:27;;;;;;;14.70;3.85;;;;;;;;;;4784600;29;20118;-86
2021/11/18 01:15:55;;;;;;;12.27;3.00;;;;;;;;;;4756956;29;20116;-85
2021/11/18 01:18:23;;;;;;;12.40;4.15;;;;;;;;;;4750984;30;20097;-86
2021/11/18 01:20:51;;;;;;;13.20;3.38;;;;;;;;;;4760176;29;20091;-86
2021/11/18 01:23:21;;;;;;;12.63;3.10;;;;;;;;;;4749477;30;20772;-86
2021/11/18 01:25:47;;;;;;;14.73;3.00;;;;;;;;;;4762685;29;20123;-85
2021/11/18 01:28:16;;;;;;;17.50;3.63;;;;;;;;;;4750121;29;20052;-86
2021/11/18 01:30:44;;;;;;;14.57;3.63;;;;;;;;;;4765283;29;20058;-87
2021/11/18 01:33:15;;;;;;;14.65;3.40;;;;;;;;;;4764724;29;20027;-86
2021/11/18 01:35:46;;;;;;;14.48;3.08;;;;;;;;;;4802964;29;20050;-85
2021/11/18 01:38:25;;;;;;;13.27;3.13;;;;;;;;;;4802489;29;20102;-85
2021/11/18 01:40:55;;;;;;;13.15;3.20;;;;;;;;;;4799241;29;20042;-86
2021/11/18 01:43:26;;;;;;;12.57;3.50;;;;;;;;;;4794552;29;20038;-85
2021/11/18 01:45:54;;;;;;;12.60;3.20;;;;;;;;;;4803155;29;20042;-86
2021/11/18 01:48:22;;;;;;;11.25;2.88;;;;;;;;;;4802541;29;20441;-86
2021/11/18 01:50:54;;;;;;;12.35;2.90;;;;;;;;;;4812205;29;20042;-85
2021/11/18 01:53:36;;;;;;;12.32;3.20;;;;;;;;;;4815390;29;20042;-86
2021/11/18 01:56:04;;;;;;;13.65;3.45;;;;;;;;;;4817487;29;20480;-87
2021/11/18 01:58:34;;;;;;;15.32;3.10;;;;;;;;;;4817727;29;21738;-86
2021/11/18 02:01:03;;;;;;;11.73;2.67;;;;;;;;;;4820486;29;20050;-86
2021/11/18 02:03:37;;;;;;;13.35;3.25;;;;;;;;;;4837833;29;20050;-86
2021/11/18 02:06:15;;;;;;;14.30;3.63;;;;;;;;;;4875470;29;20050;-87
2021/11/18 02:08:43;;;;;;;12.57;2.92;;;;;;;;;;4916893;29;20523;-86
2021/11/18 02:11:29;;;;;;;15.05;3.10;;;;;;;;;;4901048;29;20056;-85
2021/11/18 02:13:58;;;;;;;11.68;3.00;;;;;;;;;;4919117;29;20068;-86
2021/11/18 02:16:26;;;;;;;15.48;3.38;;;;;;;;;;4917539;29;20119;-86
2021/11/18 02:18:54;;;;;;;19.80;4.13;;;;;;;;;;4917673;29;20043;-85
2021/11/18 02:21:22;;;;;;;11.68;3.35;;;;;;;;;;4902235;29;20039;-86
2021/11/18 02:23:58;;;;;;;10.10;2.92;;;;;;;;;;4901972;29;20048;-86
2021/11/18 02:26:28;;;;;;;14.70;3.05;;;;;;;;;;4902822;29;20032;-87
2021/11/18 02:28:58;;;;;;;16.77;3.58;;;;;;;;;;4903761;29;20036;-86
2021/11/18 02:31:42;;;;;;;16.77;4.05;;;;;;;;;;4924016;29;20087;-85
2021/11/18 02:34:12;;;;;;;16.05;3.38;;;;;;;;;;4887383;29;20039;-85
2021/11/18 02:36:42;;;;;;;13.27;3.20;;;;;;;;;;4913789;29;20501;-84
2021/11/18 02:39:12;;;;;;;15.30;3.63;;;;;;;;;;4891411;29;20046;-85
2021/11/18 02:41:45;;;;;;;12.77;3.10;;;;;;;;;;4917348;29;20063;-85
2021/11/18 02:44:12;;;;;;;11.98;3.00;;;;;;;;;;4862129;29;20044;-85
2021/11/18 02:46:40;;;;;;;14.35;2.97;;;;;;;;;;4864119;29;20423;-84
2021/11/18 02:49:08;;;;;;;13.50;3.00;;;;;;;;;;4882427;29;20036;-85
2021/11/18 02:51:36;;;;;;;12.23;3.15;;;;;;;;;;4879776;29;20512;-85
2021/11/18 02:54:04;;;;;;;16.73;3.30;;;;;;;;;;4880484;29;20034;-85
2021/11/18 02:56:32;;;;;;;13.48;3.30;;;;;;;;;;4876781;29;20037;-85
2021/11/18 02:59:04;;;;;;;13.32;3.20;;;;;;;;;;4881381;29;20044;-85
2021/11/18 03:01:35;;;;;;;15.60;3.50;;;;;;;;;;4876167;29;20037;-86
2021/11/18 03:04:04;;;;;;;13.43;3.10;;;;;;;;;;4874628;29;20044;-86
2021/11/18 03:06:34;;;;;;;17.92;3.65;;;;;;;;;;4877801;29;20059;-84
2021/11/18 03:09:01;;;;;;;14.52;3.38;;;;;;;;;;4859720;29;20063;-84
2021/11/18 03:11:29;;;;;;;14.98;3.40;;;;;;;;;;4889928;29;20071;-85
2021/11/18 03:13:56;;;;;;;12.88;3.20;;;;;;;;;;4869859;29;20980;-85
2021/11/18 03:16:25;;;;;;;12.75;3.38;;;;;;;;;;4870828;29;20561;-85
2021/11/18 03:18:54;;;;;;;13.95;3.30;;;;;;;;;;4882753;29;20039;-85
2021/11/18 03:21:29;;;;;;;14.38;3.20;;;;;;;;;;4877338;29;20060;-85
2021/11/18 03:23:57;;;;;;;13.45;2.90;;;;;;;;;;4876116;29;20053;-85
2021/11/18 03:26:30;;;;;;;35.35;12.20;;;;;;;;;;4875201;29;20804;-85
2021/11/18 03:29:00;;;;;;;16.83;4.65;;;;;;;;;;4865272;29;20036;-85
2021/11/18 03:31:32;;;;;;;18.13;4.00;;;;;;;;;;4863304;29;20040;-84
2021/11/18 03:34:06;;;;;;;15.02;3.42;;;;;;;;;;4878694;29;20033;-85
2021/11/18 03:36:36;;;;;;;26.45;5.07;;;;;;;;;;4896228;29;20132;-87
2021/11/18 03:39:07;;;;;;;17.35;3.88;;;;;;;;;;4896856;29;20436;-86
2021/11/18 03:41:36;;;;;;;16.48;3.88;;;;;;;;;;4897487;29;20131;-87
2021/11/18 03:44:07;;;;;;;13.68;3.42;;;;;;;;;;4897450;29;20047;-87
2021/11/18 03:46:40;;;;;;;17.80;4.93;;;;;;;;;;4891948;29;20102;-86
2021/11/18 03:49:09;;;;;;;15.65;3.47;;;;;;;;;;4908741;29;20857;-86
2021/11/18 03:51:38;;;;;;;15.35;3.40;;;;;;;;;;4896291;29;20032;-87
2021/11/18 03:54:08;;;;;;;20.67;4.15;;;;;;;;;;4883407;29;20119;-87
2021/11/18 03:56:42;;;;;;;12.70;3.22;;;;;;;;;;4894697;29;20032;-86
2021/11/18 03:59:14;;;;;;;15.63;3.60;;;;;;;;;;4877690;29;20040;-87
2021/11/18 04:01:41;;;;;;;13.32;3.15;;;;;;;;;;4878205;29;20036;-86
2021/11/18 04:04:13;;;;;;;15.38;3.53;;;;;;;;;;4892865;29;20048;-84
2021/11/18 04:06:48;;;;;;;13.45;3.03;;;;;;;;;;4893732;29;20452;-86
2021/11/18 04:09:15;;;;;;;17.92;3.47;;;;;;;;;;4894954;29;20063;-86
2021/11/18 04:11:46;;;;;;;10.85;2.85;;;;;;;;;;4882872;29;20040;-87
2021/11/18 04:14:14;;;;;;;12.77;3.35;;;;;;;;;;4836312;29;20097;-84
2021/11/18 04:16:42;;;;;;;14.60;3.45;;;;;;;;;;4838815;29;20061;-84
2021/11/18 04:19:20;;;;;;;13.90;3.55;;;;;;;;;;4851420;29;20059;-84
2021/11/18 04:21:50;;;;;;;12.48;2.88;;;;;;;;;;4834229;29;20076;-84
2021/11/18 04:24:23;;;;;;;13.10;3.15;;;;;;;;;;4859228;29;20047;-84
2021/11/18 04:26:51;;;;;;;14.20;4.70;;;;;;;;;;4849616;29;20041;-85
2021/11/18 04:29:27;;;;;;;12.30;2.80;;;;;;;;;;4835056;29;20082;-84
2021/11/18 04:31:55;;;;;;;15.75;3.35;;;;;;;;;;4841891;29;20041;-85
2021/11/18 04:34:24;;;;;;;14.18;3.15;;;;;;;;;;4835171;29;20143;-85
2021/11/18 04:36:50;;;;;;;13.80;3.20;;;;;;;;;;4840145;29;20065;-85
2021/11/18 04:39:17;;;;;;;14.95;3.60;;;;;;;;;;4851536;29;20124;-84
2021/11/18 04:41:49;;;;;;;14.38;3.35;;;;;;;;;;4841123;29;20041;-85
2021/11/18 04:44:17;;;;;;;14.50;3.28;;;;;;;;;;4838073;29;20040;-85
2021/11/18 04:46:44;;;;;;;17.15;3.60;;;;;;;;;;4823063;29;20125;-85
2021/11/18 04:49:14;;;;;;;14.15;3.67;;;;;;;;;;4852422;29;20037;-85
2021/11/18 04:51:42;;;;;;;15.10;3.58;;;;;;;;;;4841073;29;20060;-85
2021/11/18 04:54:12;;;;;;;14.75;3.42;;;;;;;;;;4853512;29;20037;-85
2021/11/18 04:56:40;;;;;;;16.30;3.75;;;;;;;;;;4856705;29;20072;-85
2021/11/18 04:59:09;;;;;;;16.67;3.25;;;;;;;;;;4852377;29;20093;-84
2021/11/18 05:01:37;;;;;;;18.98;3.70;;;;;;;;;;4837092;29;20041;-85
2021/11/18 05:04:07;;;;;;;15.10;3.80;;;;;;;;;;4868998;29;21141;-85
2021/11/18 05:06:35;;;;;;;13.40;3.47;;;;;;;;;;4893678;29;20028;-85
2021/11/18 05:09:05;;;;;;;20.92;3.97;;;;;;;;;;4912865;29;20047;-85
2021/11/18 05:11:39;;;;;;;14.65;3.35;;;;;;;;;;4909596;29;20036;-84
2021/11/18 05:14:08;;;;;;;17.35;4.13;;;;;;;;;;4900870;29;20576;-84
2021/11/18 05:16:34;;;;;;;17.92;4.20;;;;;;;;;;4891305;29;20032;-85
2021/11/18 05:19:03;;;;;;;14.48;3.90;;;;;;;;;;4908519;29;20103;-85
2021/11/18 05:21:31;;;;;;;14.82;3.72;;;;;;;;;;4899177;29;20044;-84
2021/11/18 05:24:05;;;;;;;17.70;4.07;;;;;;;;;;4885521;29;20035;-85
2021/11/18 05:26:34;;;;;;;18.17;3.63;;;;;;;;;;4896969;29;20032;-85
2021/11/18 05:29:00;;;;;;;15.52;4.07;;;;;;;;;;4916748;28;20046;-85
2021/11/18 05:31:30;;;;;;;15.18;4.18;;;;;;;;;;4897325;29;20062;-84
2021/11/18 05:33:57;;;;;;;13.68;3.60;;;;;;;;;;4916708;28;20031;-85
2021/11/18 05:36:26;;;;;;;18.25;3.70;;;;;;;;;;4885707;29;20039;-85
2021/11/18 05:38:54;;;;;;;17.95;4.38;;;;;;;;;;4884338;29;20055;-85
2021/11/18 05:41:22;;;;;;;21.52;4.25;;;;;;;;;;4903115;29;20459;-85
2021/11/18 05:43:50;;;;;;;15.52;4.20;;;;;;;;;;4892953;29;20092;-86
2021/11/18 05:46:19;;;;;;;15.70;4.22;;;;;;;;;;4891949;29;20045;-86
2021/11/18 05:48:47;;;;;;;21.55;4.25;;;;;;;;;;4875892;29;20077;-87
2021/11/18 05:51:16;;;;;;;18.63;4.22;;;;;;;;;;4876542;29;20107;-87
2021/11/18 05:53:48;;;;;;;14.55;3.88;;;;;;;;;;4875569;29;20127;-87
2021/11/18 05:56:19;;;;;;;16.60;3.58;;;;;;;;;;4881297;29;20043;-88
2021/11/18 05:58:48;;;;;;;21.60;3.90;;;;;;;;;;4890736;29;20032;-87
2021/11/18 06:01:19;;;;;;;23.35;4.28;;;;;;;;;;4892359;29;20044;-86
2021/11/18 06:03:46;;;;;;;17.75;3.92;;;;;;;;;;4889858;29;20060;-85
2021/11/18 06:06:14;;;;;;;15.43;3.75;;;;;;;;;;4889569;29;20032;-85
2021/11/18 06:08:43;;;;;;;19.45;4.13;;;;;;;;;;4873275;29;20669;-85
2021/11/18 06:11:10;;;;;;;14.10;3.78;;;;;;;;;;4864845;29;20508;-86
2021/11/18 06:13:37;;;;;;;16.48;4.38;;;;;;;;;;4881365;29;20039;-84
2021/11/18 06:16:05;;;;;;;18.63;3.97;;;;;;;;;;4890685;29;20036;-84
2021/11/18 06:18:32;;;;;;;19.55;4.00;;;;;;;;;;4891588;29;20039;-85
2021/11/18 06:21:00;;;;;;;13.73;4.03;;;;;;;;;;4892700;29;20040;-85
2021/11/18 06:23:30;;;;;;;21.85;4.65;;;;;;;;;;4870065;29;20046;-87
2021/11/18 06:25:59;;;;;;;20.92;3.92;;;;;;;;;;4895124;29;20036;-85
2021/11/18 06:28:26;;;;;;;18.35;3.88;;;;;;;;;;4865078;29;20091;-86
2021/11/18 06:30:53;;;;;;;;;;;;;;;;;;4865084;29;20814;-86
2021/11/18 06:33:23;;;;;;;15.35;3.95;;;;;;;;;;4909094;29;19915;-88
2021/11/18 06:35:53;;;;;;;17.23;3.80;;;;;;;;;;4919258;29;20036;-86
2021/11/18 06:38:20;;;;;;;19.42;4.40;;;;;;;;;;4924941;29;20071;-85
2021/11/18 06:40:49;;;;;;;16.65;4.05;;;;;;;;;;4908737;29;20024;-86
2021/11/18 06:43:17;;;;;;;13.23;3.05;;;;;;;;;;4920427;29;20043;-86
2021/11/18 06:45:46;;;;;;;13.43;3.60;;;;;;;;;;4916874;29;20485;-85
2021/11/18 06:48:18;;;;;;;18.45;3.85;;;;;;;;;;4922507;29;20043;-84
2021/11/18 06:50:47;;;;;;;14.35;3.63;;;;;;;;;;4888921;29;20055;-85
2021/11/18 06:53:16;;;;;;;14.95;3.38;;;;;;;;;;4923866;29;20046;-85
2021/11/18 06:55:45;;;;;;;16.02;3.67;;;;;;;;;;4905332;29;20040;-86
2021/11/18 06:58:12;;;;;;;20.67;4.20;;;;;;;;;;4919754;29;20042;-86
2021/11/18 07:00:43;;;;;;;15.57;4.32;;;;;;;;;;4900967;29;20047;-86
2021/11/18 07:03:11;;;;;;;12.07;3.30;;;;;;;;;;4882288;29;20044;-86
2021/11/18 07:05:42;;;;;;;17.63;4.35;;;;;;;;;;4891247;29;20062;-86
2021/11/18 07:08:10;;;;;;;15.23;4.20;;;;;;;;;;4911788;29;20051;-79
2021/11/18 07:10:38;;;;;;;19.42;3.80;;;;;;;;;;4897913;29;20043;-80
2021/11/18 07:13:08;;;;;;;16.58;3.55;;;;;;;;;;4902101;29;20032;-81
2021/11/18 07:15:37;;;;;;;20.38;4.00;;;;;;;;;;4897102;29;20038;-80
2021/11/18 07:18:05;;;;;;;15.57;4.20;;;;;;;;;;4914523;29;20043;-80
2021/11/18 07:20:34;;;;;;;16.73;3.75;;;;;;;;;;4893961;28;20071;-80
2021/11/18 07:23:03;;;;;;;18.73;4.13;;;;;;;;;;4894853;29;20035;-80
2021/11/18 07:25:30;;;;;;;20.60;4.72;;;;;;;;;;4909128;29;20082;-80
2021/11/18 07:27:59;;;;;;;15.23;3.95;;;;;;;;;;4894982;29;20031;-81
2021/11/18 07:30:28;;;;;;;19.27;4.05;;;;;;;;;;4904964;29;20115;-80
2021/11/18 07:32:58;;;;;;;17.25;4.53;;;;;;;;;;4910829;29;20040;-80
2021/11/18 07:35:26;;;;;;;16.40;4.82;;;;;;;;;;4891502;29;20043;-79
2021/11/18 07:37:55;;;;;;;18.80;5.38;;;;;;;;;;4899764;29;20040;-80
2021/11/18 07:40:22;;;;;;;21.15;4.78;;;;;;;;;;4898687;29;20044;-80
2021/11/18 07:42:51;;;;;;;18.73;5.18;;;;;;;;;;4893407;29;20063;-81
2021/11/18 07:45:19;;;;;;;20.92;4.88;;;;;;;;;;4894413;29;20781;-81
2021/11/18 07:47:47;;;;;;;18.38;4.05;;;;;;;;;;4894837;29;20627;-81
2021/11/18 07:50:15;;;;;;;17.88;4.32;;;;;;;;;;4911657;29;20040;-81
2021/11/18 07:52:44;;;;;;;17.58;4.78;;;;;;;;;;4882018;29;20063;-81
2021/11/18 07:55:13;;;;;;;19.92;5.63;;;;;;;;;;4881564;29;20411;-80
2021/11/18 07:57:40;;;;;;;17.33;4.32;;;;;;;;;;4898747;29;20032;-80
2021/11/18 08:00:09;;;;;;;18.13;4.47;;;;;;;;;;4912501;29;20412;-80
2021/11/18 08:02:40;;;;;;;13.93;4.25;;;;;;;;;;4896463;29;20031;-80
2021/11/18 08:05:09;;;;;;;17.10;4.20;;;;;;;;;;4897525;29;20157;-80
2021/11/18 08:07:38;;;;;;;20.80;4.05;;;;;;;;;;4895461;29;20035;-80
2021/11/18 08:10:16;;;;;;;20.00;4.72;;;;;;;;;;4878446;29;20094;-82
2021/11/18 08:12:45;;;;;;;17.58;4.05;;;;;;;;;;4907412;29;20042;-80
2021/11/18 08:15:18;;;;;;;19.08;3.75;;;;;;;;;;4891468;29;20601;-83
2021/11/18 08:17:46;;;;;;;16.38;4.00;;;;;;;;;;4895214;29;20618;-80
2021/11/18 08:20:15;;;;;;;15.02;4.10;;;;;;;;;;4890416;29;20080;-82
2021/11/18 08:22:43;;;;;;;13.57;4.35;;;;;;;;;;4895187;29;20040;-81
2021/11/18 08:25:13;;;;;;;15.60;3.83;;;;;;;;;;4892305;29;20603;-80
2021/11/18 08:27:43;;;;;;;20.02;4.07;;;;;;;;;;4892454;29;20804;-80
2021/11/18 08:30:14;;;;;;;17.67;4.28;;;;;;;;;;4898709;29;20059;-79
2021/11/18 08:32:52;;;;;;;16.58;4.03;;;;;;;;;;4893613;29;20427;-80
2021/11/18 08:35:26;;;;;;;16.40;4.20;;;;;;;;;;4894776;29;20084;-79
2021/11/18 08:37:52;;;;;;;15.63;4.57;;;;;;;;;;4877837;29;20044;-79
2021/11/18 08:40:24;;;;;;;17.02;3.60;;;;;;;;;;4890431;29;20124;-80
2021/11/18 08:42:53;;;;;;;17.90;4.00;;;;;;;;;;4894476;29;20040;-79
2021/11/18 08:45:20;;;;;;;19.90;4.30;;;;;;;;;;4893139;29;20040;-79
2021/11/18 08:47:50;;;;;;;13.23;3.50;;;;;;;;;;4889964;29;20044;-79
2021/11/18 08:50:19;;;;;;;17.48;3.72;;;;;;;;;;4892044;29;20043;-79
2021/11/18 08:52:52;;;;;;;19.80;4.45;;;;;;;;;;4872162;29;20589;-81
2021/11/18 08:55:22;;;;;;;15.85;4.10;;;;;;;;;;4877375;29;20487;-79
2021/11/18 08:57:51;;;;;;;17.50;4.25;;;;;;;;;;4891837;29;20038;-80
2021/11/18 09:00:26;;;;;;;14.82;3.95;;;;;;;;;;4890598;29;20543;-80
2021/11/18 09:02:55;;;;;;;14.20;5.07;;;;;;;;;;4874551;29;20091;-80
2021/11/18 09:05:23;;;;;;;19.13;5.38;;;;;;;;;;4888488;29;20040;-81
2021/11/18 09:07:50;;;;;;;15.57;5.45;;;;;;;;;;4874538;29;20048;-81
2021/11/18 09:10:19;;;;;;;18.60;3.78;;;;;;;;;;4883620;29;20751;-81
2021/11/18 09:12:49;;;;;;;19.08;4.13;;;;;;;;;;4873458;29;20055;-81
2021/11/18 09:15:19;;;;;;;15.85;4.25;;;;;;;;;;4873725;29;20040;-80
2021/11/18 09:17:58;;;;;;;15.15;3.30;;;;;;;;;;4881433;29;20036;-81
2021/11/18 09:20:27;;;;;;;15.93;3.70;;;;;;;;;;4868689;29;20045;-81
2021/11/18 09:23:00;;;;;;;16.27;3.63;;;;;;;;;;4854303;29;20845;-80
2021/11/18 09:25:34;;;;;;;14.95;3.58;;;;;;;;;;4853428;29;20715;-79
2021/11/18 09:28:04;;;;;;;16.88;4.10;;;;;;;;;;4870247;29;20071;-79
2021/11/18 09:30:34;;;;;;;15.25;4.15;;;;;;;;;;4858601;29;20126;-79
2021/11/18 09:33:06;;;;;;;18.50;4.20;;;;;;;;;;4874658;29;20131;-80
2021/11/18 09:35:54;;;;;;;18.45;6.20;;;;;;;;;;4846488;29;20036;-81
2021/11/18 09:38:25;;;;;;;23.15;9.05;;;;;;;;;;4889396;29;20095;-79
2021/11/18 09:40:58;;;;;;;14.40;4.60;;;;;;;;;;4884324;29;20048;-80
2021/11/18 09:43:44;;;;;;;18.40;6.97;;;;;;;;;;4886292;29;20196;-81
2021/11/18 09:46:30;;;;;;;18.15;5.57;;;;;;;;;;4885086;29;20037;-80
2021/11/18 09:49:14;;;;;;;15.40;5.72;;;;;;;;;;4885189;29;20052;-81
2021/11/18 09:51:53;;;;;;;15.55;4.47;;;;;;;;;;4889389;29;20040;-81
2021/11/18 09:54:32;;;;;;;17.27;4.00;;;;;;;;;;4890791;29;20075;-80
2021/11/18 09:57:27;;;;;;;12.45;4.30;;;;;;;;;;4870431;29;20049;-82
2021/11/18 10:00:12;;;;;;;13.82;4.00;;;;;;;;;;4830452;29;20041;-80
2021/11/18 10:02:45;;;;;;;15.20;3.42;;;;;;;;;;4813384;29;20044;-80
2021/11/18 10:05:18;;;;;;;14.57;3.42;;;;;;;;;;4812464;29;20050;-81
2021/11/18 10:07:54;;;;;;;13.45;3.53;;;;;;;;;;4815531;29;20044;-80
2021/11/18 10:10:29;;;;;;;16.20;3.50;;;;;;;;;;4824484;29;20077;-79
2021/11/18 10:13:12;;;;;;;16.27;3.85;;;;;;;;;;4824586;29;20121;-81
2021/11/18 10:15:45;;;;;;;12.93;3.50;;;;;;;;;;4809022;29;20033;-79
2021/11/18 10:18:21;;;;;;;16.67;4.80;;;;;;;;;;4778885;29;20162;-79
2021/11/18 10:20:52;;;;;;;12.07;3.58;;;;;;;;;;4816269;29;20053;-81
2021/11/18 10:23:24;;;;;;;16.13;3.90;;;;;;;;;;4817173;29;20042;-81
2021/11/18 10:26:03;;;;;;;19.02;4.00;;;;;;;;;;4800848;29;20182;-81
2021/11/18 10:28:50;;;;;;;17.70;4.20;;;;;;;;;;4814991;29;20042;-82
2021/11/18 10:31:25;;;;;;;15.93;4.07;;;;;;;;;;4811770;29;20569;-81
2021/11/18 10:34:11;;;;;;;13.50;3.73;;;;;;;;;;4816064;29;20109;-80
2021/11/18 10:36:58;;;;;;;13.85;3.95;;;;;;;;;;4850329;29;20302;-80
2021/11/18 10:39:35;;;;;;;17.77;3.83;;;;;;;;;;4887700;29;20040;-81
2021/11/18 10:42:09;;;;;;;16.48;4.20;;;;;;;;;;4890553;29;20815;-79
2021/11/18 10:44:58;;;;;;;12.30;3.78;;;;;;;;;;4885671;29;20776;-80
2021/11/18 10:47:28;;;;;;;13.90;3.83;;;;;;;;;;4893844;29;20070;-79
2021/11/18 10:50:18;;;;;;;17.25;3.72;;;;;;;;;;4877788;29;20039;-79
2021/11/18 10:53:16;;;;;;;16.13;4.10;;;;;;;;;;4886552;29;20056;-79
2021/11/18 10:55:51;;;;;;;20.35;4.47;;;;;;;;;;4889908;29;20044;-80
2021/11/18 10:58:36;;;;;;;14.45;3.55;;;;;;;;;;4883818;29;20082;-85
2021/11/18 11:01:14;;;;;;;15.30;3.95;;;;;;;;;;4898988;29;20044;-85
2021/11/18 11:03:49;;;;;;;17.65;3.75;;;;;;;;;;4877143;29;20575;-85
2021/11/18 11:06:17;;;;;;;14.05;3.97;;;;;;;;;;4889370;29;20044;-83
2021/11/18 11:08:49;;;;;;;14.40;3.97;;;;;;;;;;4895789;29;20047;-84
2021/11/18 11:11:27;;;;;;;14.77;4.25;;;;;;;;;;4890325;29;20115;-85
2021/11/18 11:14:13;;;;;;;13.48;3.83;;;;;;;;;;4887436;29;20047;-85
2021/11/18 11:16:52;;;;;;;14.35;4.05;;;;;;;;;;4895412;29;20051;-85
2021/11/18 11:19:36;;;;;;;19.90;4.22;;;;;;;;;;4903852;29;20458;-84
2021/11/18 11:22:36;;;;;;;15.93;3.88;;;;;;;;;;4891089;29;20040;-85
2021/11/18 11:25:13;;;;;;;21.35;4.22;;;;;;;;;;4860190;29;20046;-84
2021/11/18 11:27:41;;;;;;;;;;;;;;;;;;4892889;29;20040;-84
2021/11/18 11:30:35;;;;;;;12.80;4.00;;;;;;;;;;4882324;29;19954;-91
2021/11/18 11:33:23;;;;;;;14.73;4.15;;;;;;;;;;4844365;29;20053;-91
2021/11/18 11:36:10;;;;;;;15.93;4.53;;;;;;;;;;4865485;29;20128;-92
2021/11/18 11:39:04;;;;;;;15.90;4.18;;;;;;;;;;4863247;29;20082;-93
2021/11/18 11:41:49;;;;;;;13.82;3.20;;;;;;;;;;4864710;29;20037;-92
2021/11/18 11:44:25;;;;;;;20.38;3.78;;;;;;;;;;4864792;29;20037;-92
2021/11/18 11:47:13;;;;;;;17.30;3.85;;;;;;;;;;4836794;29;20045;-93
2021/11/18 11:49:59;;;;;;;15.48;3.60;;;;;;;;;;4865880;29;20076;-91
2021/11/18 11:52:37;;;;;;;15.13;3.80;;;;;;;;;;4852481;29;20551;-93
2021/11/18 11:55:24;;;;;;;16.83;3.85;;;;;;;;;;4851253;29;20507;-93
2021/11/18 11:58:28;;;;;;;13.70;3.33;;;;;;;;;;4855959;29;20060;-93
2021/11/18 12:01:13;;;;;;;14.65;3.92;;;;;;;;;;4827032;29;20863;-92
2021/11/18 12:03:59;;;;;;;18.83;4.05;;;;;;;;;;4831817;29;20042;-93
2021/11/18 12:06:51;;;;;;;16.85;3.97;;;;;;;;;;4813074;29;20034;-92
2021/11/18 12:09:28;;;;;;;16.60;4.53;;;;;;;;;;4734627;30;20094;-92
2021/11/18 12:12:14;;;;;;;25.98;12.32;;;;;;;;;;4758138;29;20521;-93
2021/11/18 12:14:48;;;;;;;15.65;5.15;;;;;;;;;;4760412;29;20039;-93
2021/11/18 12:17:49;;;;;;;13.75;4.25;;;;;;;;;;4740694;29;20821;-93
2021/11/18 12:23:53;;;;;;;18.30;3.90;;;;;;;;;;4730737;30;20217;-94
2021/11/18 12:26:21;;;;;;;16.73;4.97;;;;;;;;;;4739012;30;20036;-94
2021/11/18 12:29:20;;;;;;;17.95;4.63;;;;;;;;;;4727546;30;21015;-94
2021/11/18 12:32:07;;;;;;;13.30;4.68;;;;;;;;;;4687712;30;20492;-89
2021/11/18 12:34:52;;;;;;;16.47;6.17;;;;;;;;;;4717315;30;20060;-87
2021/11/18 12:37:34;;;;;;;13.88;4.45;;;;;;;;;;4722479;30;20324;-88
2021/11/18 12:40:08;;;;;;;13.65;4.00;;;;;;;;;;4717525;30;20049;-87
2021/11/18 12:43:00;;;;;;;16.48;4.95;;;;;;;;;;4722366;30;20115;-87
2021/11/18 12:45:39;;;;;;;13.68;3.80;;;;;;;;;;4693782;29;20053;-88
2021/11/18 12:48:25;;;;;;;16.00;4.50;;;;;;;;;;4753494;30;20045;-88
2021/11/18 12:51:08;;;;;;;16.55;3.72;;;;;;;;;;4751725;29;20054;-86
2021/11/18 12:53:40;;;;;;;14.85;3.95;;;;;;;;;;4768302;29;20062;-88
2021/11/18 12:56:14;;;;;;;13.15;3.38;;;;;;;;;;4768839;29;20147;-87
2021/11/18 12:58:46;;;;;;;17.52;3.95;;;;;;;;;;4837360;29;20486;-87
2021/11/18 13:01:30;;;;;;;12.25;3.33;;;;;;;;;;4836567;29;20087;-87
2021/11/18 13:04:08;;;;;;;11.88;3.33;;;;;;;;;;4843753;29;20164;-88
2021/11/18 13:06:45;;;;;;;15.90;3.30;;;;;;;;;;4849491;29;20032;-86
2021/11/18 13:09:16;;;;;;;13.32;3.88;;;;;;;;;;4896714;29;20059;-88
2021/11/18 13:12:01;;;;;;;14.48;4.35;;;;;;;;;;4902929;29;20167;-87
2021/11/18 13:14:35;;;;;;;15.82;4.20;;;;;;;;;;4902812;29;20032;-87
2021/11/18 13:17:22;;;;;;;14.02;3.78;;;;;;;;;;4905762;29;20028;-86
2021/11/18 13:19:52;;;;;;;18.38;4.18;;;;;;;;;;4900062;29;20042;-86
2021/11/18 13:22:53;;;;;;;14.65;4.25;;;;;;;;;;4904557;29;20715;-85
2021/11/18 13:25:28;;;;;;;20.17;6.55;;;;;;;;;;4845237;29;20038;-86
2021/11/18 13:27:59;;;;;;;;;;;;;;;;;;4855454;29;20108;-86
2021/11/18 13:30:31;;;;;;;20.73;6.60;;;;;;;;;;4855598;29;19916;-86
2021/11/18 13:33:05;;;;;;;16.70;6.40;;;;;;;;;;4842274;29;20076;-87
2021/11/18 13:35:38;;;;;;;22.35;7.45;;;;;;;;;;4836423;29;20049;-86
2021/11/18 13:38:15;;;;;;;22.67;7.88;;;;;;;;;;4846986;29;20049;-87
2021/11/18 13:40:43;;;;;;;;;;;;;;;;;;4833915;29;20076;-88
2021/11/18 13:43:14;;;;;;;14.38;4.97;;;;;;;;;;4855218;29;19971;-88
2021/11/18 13:46:02;;;;;;;21.95;6.38;;;;;;;;;;4837855;29;20156;-87
2021/11/18 13:49:11;;;;;;;17.50;6.07;;;;;;;;;;4849753;29;20048;-87
2021/11/18 13:51:52;;;;;;;18.67;6.35;;;;;;;;;;4820465;29;20782;-87
2021/11/18 13:54:38;;;;;;;18.42;7.35;;;;;;;;;;4842532;29;20113;-89
2021/11/18 13:57:13;;;;;;;17.75;6.22;;;;;;;;;;4797989;29;20037;-88
2021/11/18 13:59:44;;;;;;;16.20;4.72;;;;;;;;;;4813032;29;20046;-85
2021/11/18 14:02:17;;;;;;;17.83;5.35;;;;;;;;;;4907349;29;20036;-89
2021/11/18 14:04:47;;;;;;;14.07;4.72;;;;;;;;;;4871770;29;20087;-85
2021/11/18 14:07:20;;;;;;;12.85;3.42;;;;;;;;;;4906872;29;20036;-86
2021/11/18 14:09:58;;;;;;;14.82;3.85;;;;;;;;;;4902863;29;20127;-86
2021/11/18 14:12:30;;;;;;;12.98;3.60;;;;;;;;;;4903491;29;20044;-87
2021/11/18 14:15:19;;;;;;;12.68;3.33;;;;;;;;;;4892578;29;20784;-87
2021/11/18 14:18:00;;;;;;;12.90;3.78;;;;;;;;;;4896993;29;20039;-87
2021/11/18 14:20:36;;;;;;;15.30;5.18;;;;;;;;;;4880425;29;20517;-86
2021/11/18 14:23:12;;;;;;;16.10;5.35;;;;;;;;;;4859117;29;20033;-86
2021/11/18 14:25:43;;;;;;;16.63;5.53;;;;;;;;;;4875548;29;20037;-85
2021/11/18 14:28:33;;;;;;;17.63;5.18;;;;;;;;;;4863406;29;20037;-83
2021/11/18 14:31:06;;;;;;;13.20;4.70;;;;;;;;;;4863961;29;20100;-86
2021/11/18 14:33:43;;;;;;;17.58;4.63;;;;;;;;;;4846983;29;20096;-87
2021/11/18 14:36:29;;;;;;;22.17;5.45;;;;;;;;;;4883671;29;20674;-86
2021/11/18 14:39:13;;;;;;;16.65;4.25;;;;;;;;;;4869239;29;20069;-87
2021/11/18 14:41:48;;;;;;;19.30;5.03;;;;;;;;;;4865481;29;20037;-87
2021/11/18 14:44:29;;;;;;;20.27;6.15;;;;;;;;;;4848265;29;20044;-86
2021/11/18 14:47:09;;;;;;;17.25;5.63;;;;;;;;;;4851750;29;20103;-87
2021/11/18 14:49:55;;;;;;;19.23;6.00;;;;;;;;;;4879253;29;20045;-86
2021/11/18 14:52:35;;;;;;;18.80;4.70;;;;;;;;;;4890630;29;20040;-87
2021/11/18 14:55:24;;;;;;;18.23;5.22;;;;;;;;;;4903815;29;20033;-87
2021/11/18 14:57:57;;;;;;;15.15;4.88;;;;;;;;;;4898057;29;20048;-87
2021/11/18 15:00:41;;;;;;;14.10;5.38;;;;;;;;;;4900195;29;20909;-86
2021/11/18 15:03:20;;;;;;;17.33;5.32;;;;;;;;;;4875364;29;20044;-87
2021/11/18 15:05:51;;;;;;;14.23;4.05;;;;;;;;;;4898257;29;20072;-86
2021/11/18 15:08:25;;;;;;;14.75;3.90;;;;;;;;;;4898532;29;20102;-87
2021/11/18 15:10:54;;;;;;;19.25;5.25;;;;;;;;;;4906635;29;20071;-85